sensor_id;sensor_type;location;lat;lon;timestamp;temperature;humidity
13446;DHT22;6795;51.232;3.764;2023-04-25T01:22:38;7.90;99.90
13446;DHT22;6795;51.232;3.764;2023-04-25T01:25:07;7.60;99.90
13446;DHT22;6795;51.232;3.764;2023-04-25T01:27:37;7.50;99.90
13446;DHT22;6795;51.232;3.764;2023-04-25T01:30:08;7.40;99.90
13446;DHT22;6795;51.232;3.764;2023-04-25T01:32:36;7.50;99.90
13446;DHT22;6795;51.232;3.764;2023-04-25T01:35:08;7.40;99.90
13446;DHT22;6795;51.232;3.764;2023-04-25T01:37:38;7.40;99.90
13446;DHT22;6795;51.232;3.764;2023-04-25T01:40:08;7.30;99.90
13446;DHT22;6795;51.232;3.764;2023-04-25T01:42:40;7.10;99.90
13446;DHT22;6795;51.232;3.764;2023-04-25T03:54:29;7.10;99.90
13446;DHT22;6795;51.232;3.764;2023-04-25T03:56:58;6.10;99.90
13446;DHT22;6795;51.232;3.764;2023-04-25T03:59:26;6.10;99.90
13446;DHT22;6795;51.232;3.764;2023-04-25T04:01:55;6.10;99.90
13446;DHT22;6795;51.232;3.764;2023-04-25T04:04:23;6.20;99.90
13446;DHT22;6795;51.232;3.764;2023-04-25T04:06:52;6.20;99.90
13446;DHT22;6795;51.232;3.764;2023-04-25T04:09:20;6.20;99.90
13446;DHT22;6795;51.232;3.764;2023-04-25T04:11:50;6.20;99.90
13446;DHT22;6795;51.232;3.764;2023-04-25T04:14:19;6.20;99.90
13446;DHT22;6795;51.232;3.764;2023-04-25T04:16:48;6.20;99.90
13446;DHT22;6795;51.232;3.764;2023-04-25T04:19:16;6.20;99.90
13446;DHT22;6795;51.232;3.764;2023-04-25T04:21:44;6.20;99.90
13446;DHT22;6795;51.232;3.764;2023-04-25T04:24:13;6.20;99.90
13446;DHT22;6795;51.232;3.764;2023-04-25T04:26:42;6.20;99.90
13446;DHT22;6795;51.232;3.764;2023-04-25T04:29:13;6.20;99.90
13446;DHT22;6795;51.232;3.764;2023-04-25T04:31:48;6.20;99.90
13446;DHT22;6795;51.232;3.764;2023-04-25T04:34:17;6.30;99.90
13446;DHT22;6795;51.232;3.764;2023-04-25T04:36:47;6.30;99.90
13446;DHT22;6795;51.232;3.764;2023-04-25T04:39:16;6.30;99.90
13446;DHT22;6795;51.232;3.764;2023-04-25T04:41:44;6.30;99.90
13446;DHT22;6795;51.232;3.764;2023-04-25T04:44:14;6.40;99.90
13446;DHT22;6795;51.232;3.764;2023-04-25T04:46:42;6.40;99.90
13446;DHT22;6795;51.232;3.764;2023-04-25T04:49:12;6.40;99.90
13446;DHT22;6795;51.232;3.764;2023-04-25T04:51:40;6.40;99.90
13446;DHT22;6795;51.232;3.764;2023-04-25T04:54:11;6.40;99.90
13446;DHT22;6795;51.232;3.764;2023-04-25T04:56:39;6.40;99.90
13446;DHT22;6795;51.232;3.764;2023-04-25T04:59:08;6.40;99.90
13446;DHT22;6795;51.232;3.764;2023-04-25T05:01:38;6.40;99.90
13446;DHT22;6795;51.232;3.764;2023-04-25T05:04:07;6.40;99.90
13446;DHT22;6795;51.232;3.764;2023-04-25T05:06:35;6.40;99.90
13446;DHT22;6795;51.232;3.764;2023-04-25T05:09:04;6.40;99.90
13446;DHT22;6795;51.232;3.764;2023-04-25T05:11:32;6.40;99.90
13446;DHT22;6795;51.232;3.764;2023-04-25T05:14:00;6.50;99.90
13446;DHT22;6795;51.232;3.764;2023-04-25T05:16:29;6.50;99.90
13446;DHT22;6795;51.232;3.764;2023-04-25T05:18:59;6.60;99.90
13446;DHT22;6795;51.232;3.764;2023-04-25T05:21:27;6.70;99.90
13446;DHT22;6795;51.232;3.764;2023-04-25T05:23:56;6.70;99.90
13446;DHT22;6795;51.232;3.764;2023-04-25T05:26:24;6.80;99.90
13446;DHT22;6795;51.232;3.764;2023-04-25T05:28:52;6.80;99.90
13446;DHT22;6795;51.232;3.764;2023-04-25T05:31:21;6.90;99.90
13446;DHT22;6795;51.232;3.764;2023-04-25T05:33:49;6.90;99.90
13446;DHT22;6795;51.232;3.764;2023-04-25T05:36:20;7.00;99.90
13446;DHT22;6795;51.232;3.764;2023-04-25T05:38:48;7.10;99.90
13446;DHT22;6795;51.232;3.764;2023-04-25T05:41:16;7.10;99.90
13446;DHT22;6795;51.232;3.764;2023-04-25T05:43:45;7.30;99.90
13446;DHT22;6795;51.232;3.764;2023-04-25T05:46:16;7.40;99.90
13446;DHT22;6795;51.232;3.764;2023-04-25T05:48:45;7.50;99.90
13446;DHT22;6795;51.232;3.764;2023-04-25T05:51:13;7.60;99.90
13446;DHT22;6795;51.232;3.764;2023-04-25T05:53:43;7.60;99.90
13446;DHT22;6795;51.232;3.764;2023-04-25T05:56:11;7.60;99.90
13446;DHT22;6795;51.232;3.764;2023-04-25T05:58:40;7.70;99.90
13446;DHT22;6795;51.232;3.764;2023-04-25T06:01:08;7.70;99.90
13446;DHT22;6795;51.232;3.764;2023-04-25T06:03:37;7.70;99.90
13446;DHT22;6795;51.232;3.764;2023-04-25T06:06:06;7.80;99.90
13446;DHT22;6795;51.232;3.764;2023-04-25T06:08:35;7.90;99.90
13446;DHT22;6795;51.232;3.764;2023-04-25T06:11:06;7.90;99.90
13446;DHT22;6795;51.232;3.764;2023-04-25T06:13:34;8.00;99.90
13446;DHT22;6795;51.232;3.764;2023-04-25T06:16:03;8.10;99.90
13446;DHT22;6795;51.232;3.764;2023-04-25T06:18:31;8.10;99.90
13446;DHT22;6795;51.232;3.764;2023-04-25T06:21:00;8.10;99.90
13446;DHT22;6795;51.232;3.764;2023-04-25T06:23:28;8.20;99.90
13446;DHT22;6795;51.232;3.764;2023-04-25T06:25:57;8.20;99.90
13446;DHT22;6795;51.232;3.764;2023-04-25T06:28:26;8.30;99.90
13446;DHT22;6795;51.232;3.764;2023-04-25T06:30:55;8.30;99.90
13446;DHT22;6795;51.232;3.764;2023-04-25T06:33:23;8.10;99.90
13446;DHT22;6795;51.232;3.764;2023-04-25T06:35:52;8.10;99.90
13446;DHT22;6795;51.232;3.764;2023-04-25T06:38:20;8.20;99.90
13446;DHT22;6795;51.232;3.764;2023-04-25T06:40:49;8.20;99.90
13446;DHT22;6795;51.232;3.764;2023-04-25T06:43:18;8.20;99.90
13446;DHT22;6795;51.232;3.764;2023-04-25T06:45:47;8.60;99.90
13446;DHT22;6795;51.232;3.764;2023-04-25T07:35:24;9.20;99.90
13446;DHT22;6795;51.232;3.764;2023-04-25T07:40:22;9.50;99.90
13446;DHT22;6795;51.232;3.764;2023-04-25T07:42:51;9.90;99.90
13446;DHT22;6795;51.232;3.764;2023-04-25T07:45:19;9.70;99.90
13446;DHT22;6795;51.232;3.764;2023-04-25T07:47:48;9.60;99.90
13446;DHT22;6795;51.232;3.764;2023-04-25T07:50:17;9.50;99.90
13446;DHT22;6795;51.232;3.764;2023-04-25T07:52:45;9.60;99.90
13446;DHT22;6795;51.232;3.764;2023-04-25T07:55:15;9.70;99.90
13446;DHT22;6795;51.232;3.764;2023-04-25T07:57:43;9.70;99.90
13446;DHT22;6795;51.232;3.764;2023-04-25T08:00:13;9.50;99.90
13446;DHT22;6795;51.232;3.764;2023-04-25T08:02:42;9.70;99.90
13446;DHT22;6795;51.232;3.764;2023-04-25T08:05:10;9.70;99.90
13446;DHT22;6795;51.232;3.764;2023-04-25T08:07:41;9.90;99.90
13446;DHT22;6795;51.232;3.764;2023-04-25T08:10:10;9.80;99.90
13446;DHT22;6795;51.232;3.764;2023-04-25T08:12:40;9.60;99.90
13446;DHT22;6795;51.232;3.764;2023-04-25T08:15:09;9.60;99.90
13446;DHT22;6795;51.232;3.764;2023-04-25T08:17:38;9.80;99.90
13446;DHT22;6795;51.232;3.764;2023-04-25T08:20:07;10.00;99.90
13446;DHT22;6795;51.232;3.764;2023-04-25T08:22:37;10.20;99.90
13446;DHT22;6795;51.232;3.764;2023-04-25T08:52:37;10.50;99.90
13446;DHT22;6795;51.232;3.764;2023-04-25T09:07:41;8.60;99.90
13446;DHT22;6795;51.232;3.764;2023-04-25T09:17:41;7.50;99.90
13446;DHT22;6795;51.232;3.764;2023-04-25T09:20:13;7.40;99.90
13446;DHT22;6795;51.232;3.764;2023-04-25T09:22:42;7.60;99.90
13446;DHT22;6795;51.232;3.764;2023-04-25T09:25:13;7.80;99.90
13446;DHT22;6795;51.232;3.764;2023-04-25T09:27:51;8.10;99.90
13446;DHT22;6795;51.232;3.764;2023-04-25T09:30:29;8.30;99.90
13446;DHT22;6795;51.232;3.764;2023-04-25T09:33:04;8.60;99.90
13446;DHT22;6795;51.232;3.764;2023-04-25T09:35:35;8.80;99.90
13446;DHT22;6795;51.232;3.764;2023-04-25T09:38:09;9.00;99.90
13446;DHT22;6795;51.232;3.764;2023-04-25T09:40:40;9.10;99.90
13446;DHT22;6795;51.232;3.764;2023-04-25T09:43:19;9.20;99.90
13446;DHT22;6795;51.232;3.764;2023-04-25T09:48:21;9.40;99.90
13446;DHT22;6795;51.232;3.764;2023-04-25T09:51:04;9.50;99.90
13446;DHT22;6795;51.232;3.764;2023-04-25T10:46:28;9.90;99.90
13446;DHT22;6795;51.232;3.764;2023-04-25T10:49:00;11.10;99.90
13446;DHT22;6795;51.232;3.764;2023-04-25T10:51:30;11.20;99.90
13446;DHT22;6795;51.232;3.764;2023-04-25T10:54:19;11.20;99.90
13446;DHT22;6795;51.232;3.764;2023-04-25T10:56:52;11.00;99.90
13446;DHT22;6795;51.232;3.764;2023-04-25T10:59:25;10.80;99.40
13446;DHT22;6795;51.232;3.764;2023-04-25T11:01:53;10.80;99.90
13446;DHT22;6795;51.232;3.764;2023-04-25T11:04:24;11.00;99.90
13446;DHT22;6795;51.232;3.764;2023-04-25T11:07:07;10.90;99.40
13446;DHT22;6795;51.232;3.764;2023-04-25T11:09:39;11.20;98.00
13446;DHT22;6795;51.232;3.764;2023-04-25T11:12:09;11.10;96.90
13446;DHT22;6795;51.232;3.764;2023-04-25T11:15:02;11.10;97.70
13446;DHT22;6795;51.232;3.764;2023-04-25T11:17:34;11.30;98.00
13446;DHT22;6795;51.232;3.764;2023-04-25T11:20:07;11.20;98.70
13446;DHT22;6795;51.232;3.764;2023-04-25T11:22:38;11.40;99.10
13446;DHT22;6795;51.232;3.764;2023-04-25T11:25:10;11.50;98.40
13446;DHT22;6795;51.232;3.764;2023-04-25T11:27:49;11.30;98.50
13446;DHT22;6795;51.232;3.764;2023-04-25T11:30:19;11.30;98.60
13446;DHT22;6795;51.232;3.764;2023-04-25T11:32:48;11.30;98.90
13446;DHT22;6795;51.232;3.764;2023-04-25T12:07:48;11.90;99.90
13446;DHT22;6795;51.232;3.764;2023-04-25T12:30:58;12.90;98.40
13446;DHT22;6795;51.232;3.764;2023-04-25T12:33:29;11.10;97.20
13446;DHT22;6795;51.232;3.764;2023-04-25T12:35:58;11.00;97.40
13446;DHT22;6795;51.232;3.764;2023-04-25T12:38:28;11.00;99.20
13446;DHT22;6795;51.232;3.764;2023-04-25T12:40:58;11.30;99.20
13446;DHT22;6795;51.232;3.764;2023-04-25T12:43:27;11.30;99.90
13446;DHT22;6795;51.232;3.764;2023-04-25T12:50:53;10.90;99.70
13446;DHT22;6795;51.232;3.764;2023-04-25T12:53:23;10.10;99.90
13446;DHT22;6795;51.232;3.764;2023-04-25T12:55:51;10.10;99.90
13446;DHT22;6795;51.232;3.764;2023-04-25T12:58:26;10.20;99.90
13446;DHT22;6795;51.232;3.764;2023-04-25T13:00:54;10.40;99.90
13446;DHT22;6795;51.232;3.764;2023-04-25T14:23:33;11.50;99.90
13446;DHT22;6795;51.232;3.764;2023-04-25T14:26:59;10.70;96.50
13446;DHT22;6795;51.232;3.764;2023-04-25T14:30:17;10.80;97.00
13446;DHT22;6795;51.232;3.764;2023-04-25T14:57:59;10.60;97.20
13446;DHT22;6795;51.232;3.764;2023-04-25T15:01:14;11.60;99.00
13446;DHT22;6795;51.232;3.764;2023-04-25T15:04:20;12.20;98.00
13446;DHT22;6795;51.232;3.764;2023-04-25T15:07:18;11.30;98.10
13446;DHT22;6795;51.232;3.764;2023-04-25T15:10:22;10.70;98.80
13446;DHT22;6795;51.232;3.764;2023-04-25T15:13:28;11.30;99.70
13446;DHT22;6795;51.232;3.764;2023-04-25T15:16:50;11.10;97.80
13446;DHT22;6795;51.232;3.764;2023-04-25T15:20:10;10.60;99.20
13446;DHT22;6795;51.232;3.764;2023-04-25T15:23:21;10.60;98.00
13446;DHT22;6795;51.232;3.764;2023-04-25T15:26:47;10.60;97.60
13446;DHT22;6795;51.232;3.764;2023-04-25T15:29:44;11.10;97.80
13446;DHT22;6795;51.232;3.764;2023-04-25T15:33:18;11.70;97.20
13446;DHT22;6795;51.232;3.764;2023-04-25T15:36:23;12.10;95.70
13446;DHT22;6795;51.232;3.764;2023-04-25T15:39:27;12.30;95.60
13446;DHT22;6795;51.232;3.764;2023-04-25T15:42:54;12.20;95.40
13446;DHT22;6795;51.232;3.764;2023-04-25T15:46:25;12.30;95.30
13446;DHT22;6795;51.232;3.764;2023-04-25T15:53:32;12.60;96.30
13446;DHT22;6795;51.232;3.764;2023-04-25T16:00:31;13.30;95.70
13446;DHT22;6795;51.232;3.764;2023-04-25T16:11:00;11.50;95.70
13446;DHT22;6795;51.232;3.764;2023-04-25T16:25:33;11.60;94.30
13446;DHT22;6795;51.232;3.764;2023-04-25T16:29:11;11.90;93.60
13446;DHT22;6795;51.232;3.764;2023-04-25T16:36:09;11.20;95.60
13446;DHT22;6795;51.232;3.764;2023-04-25T16:39:06;10.20;96.60
13446;DHT22;6795;51.232;3.764;2023-04-25T16:49:47;9.60;98.60
13446;DHT22;6795;51.232;3.764;2023-04-25T16:52:16;10.00;98.20
13446;DHT22;6795;51.232;3.764;2023-04-25T16:54:47;9.70;98.60
13446;DHT22;6795;51.232;3.764;2023-04-25T16:57:15;9.40;99.70
13446;DHT22;6795;51.232;3.764;2023-04-25T16:59:43;9.10;99.90
13446;DHT22;6795;51.232;3.764;2023-04-25T17:04:41;8.90;99.90
13446;DHT22;6795;51.232;3.764;2023-04-25T17:07:11;8.60;99.90
13446;DHT22;6795;51.232;3.764;2023-04-25T17:09:39;8.50;99.90
13446;DHT22;6795;51.232;3.764;2023-04-25T17:22:05;8.50;99.90
13446;DHT22;6795;51.232;3.764;2023-04-25T17:24:35;8.30;99.90
13446;DHT22;6795;51.232;3.764;2023-04-25T17:29:35;8.20;99.90
13446;DHT22;6795;51.232;3.764;2023-04-25T17:32:04;8.30;99.90
13446;DHT22;6795;51.232;3.764;2023-04-25T17:34:32;8.40;99.90
13446;DHT22;6795;51.232;3.764;2023-04-25T17:37:03;8.50;99.90
13446;DHT22;6795;51.232;3.764;2023-04-25T17:39:31;8.60;99.90
13446;DHT22;6795;51.232;3.764;2023-04-25T17:42:01;8.50;99.90
13446;DHT22;6795;51.232;3.764;2023-04-25T17:44:30;8.50;99.90
13446;DHT22;6795;51.232;3.764;2023-04-25T17:46:58;8.70;99.90
13446;DHT22;6795;51.232;3.764;2023-04-25T17:49:27;8.90;99.90
13446;DHT22;6795;51.232;3.764;2023-04-25T17:51:55;9.00;99.90
13446;DHT22;6795;51.232;3.764;2023-04-25T17:54:23;8.90;99.90
13446;DHT22;6795;51.232;3.764;2023-04-25T17:56:53;8.80;99.90
13446;DHT22;6795;51.232;3.764;2023-04-25T17:59:23;8.70;99.90
13446;DHT22;6795;51.232;3.764;2023-04-25T18:01:52;8.50;99.90
13446;DHT22;6795;51.232;3.764;2023-04-25T18:04:20;8.40;99.90
13446;DHT22;6795;51.232;3.764;2023-04-25T18:06:49;8.30;99.90
13446;DHT22;6795;51.232;3.764;2023-04-25T18:39:29;8.10;99.90
13446;DHT22;6795;51.232;3.764;2023-04-25T18:41:58;7.40;99.90
13446;DHT22;6795;51.232;3.764;2023-04-25T18:44:32;7.30;99.90
13446;DHT22;6795;51.232;3.764;2023-04-25T18:47:07;7.20;99.90
13446;DHT22;6795;51.232;3.764;2023-04-25T18:49:36;7.20;99.90
13446;DHT22;6795;51.232;3.764;2023-04-25T18:52:04;7.10;99.90
13446;DHT22;6795;51.232;3.764;2023-04-25T18:54:36;7.10;99.90
13446;DHT22;6795;51.232;3.764;2023-04-25T18:57:05;6.90;99.90
13446;DHT22;6795;51.232;3.764;2023-04-25T18:59:33;6.80;99.90
13446;DHT22;6795;51.232;3.764;2023-04-25T19:12:00;6.70;99.90
13446;DHT22;6795;51.232;3.764;2023-04-25T19:14:30;6.30;99.90
13446;DHT22;6795;51.232;3.764;2023-04-25T19:16:58;6.30;99.90
13446;DHT22;6795;51.232;3.764;2023-04-25T19:39:24;6.20;99.90
13446;DHT22;6795;51.232;3.764;2023-04-25T19:41:53;5.30;99.90
13446;DHT22;6795;51.232;3.764;2023-04-25T19:44:23;5.20;99.90
13446;DHT22;6795;51.232;3.764;2023-04-25T19:49:20;5.10;99.90
13446;DHT22;6795;51.232;3.764;2023-04-25T19:51:49;5.10;99.90
13446;DHT22;6795;51.232;3.764;2023-04-25T19:54:17;5.10;99.90
13446;DHT22;6795;51.232;3.764;2023-04-25T19:56:50;5.00;99.90
13446;DHT22;6795;51.232;3.764;2023-04-25T19:59:18;4.80;99.90
13446;DHT22;6795;51.232;3.764;2023-04-25T20:01:47;4.70;99.90
13446;DHT22;6795;51.232;3.764;2023-04-25T20:04:16;4.70;99.90
13446;DHT22;6795;51.232;3.764;2023-04-25T20:06:44;4.60;99.90
13446;DHT22;6795;51.232;3.764;2023-04-25T20:09:13;4.50;99.90
13446;DHT22;6795;51.232;3.764;2023-04-25T20:11:42;4.40;99.90
13446;DHT22;6795;51.232;3.764;2023-04-25T20:14:12;4.30;99.90
13446;DHT22;6795;51.232;3.764;2023-04-25T20:16:40;4.10;99.90
13446;DHT22;6795;51.232;3.764;2023-04-25T20:21:37;3.80;99.90
13446;DHT22;6795;51.232;3.764;2023-04-25T20:24:06;3.30;99.90
13446;DHT22;6795;51.232;3.764;2023-04-25T20:26:34;3.10;99.90
13446;DHT22;6795;51.232;3.764;2023-04-25T20:29:03;3.10;99.90
13446;DHT22;6795;51.232;3.764;2023-04-25T20:31:33;3.10;99.90
13446;DHT22;6795;51.232;3.764;2023-04-25T20:34:03;3.10;99.90
13446;DHT22;6795;51.232;3.764;2023-04-25T20:36:31;3.00;99.90
13446;DHT22;6795;51.232;3.764;2023-04-25T20:39:00;3.10;99.90
13446;DHT22;6795;51.232;3.764;2023-04-25T20:41:28;3.10;99.90
13446;DHT22;6795;51.232;3.764;2023-04-25T20:43:57;3.20;99.90
13446;DHT22;6795;51.232;3.764;2023-04-25T20:46:27;3.00;99.90
13446;DHT22;6795;51.232;3.764;2023-04-25T20:48:57;3.00;99.90
13446;DHT22;6795;51.232;3.764;2023-04-25T20:51:28;2.90;99.90
13446;DHT22;6795;51.232;3.764;2023-04-25T20:53:56;3.00;99.90
13446;DHT22;6795;51.232;3.764;2023-04-25T20:56:26;2.70;99.90
13446;DHT22;6795;51.232;3.764;2023-04-25T20:58:55;2.70;99.90
13446;DHT22;6795;51.232;3.764;2023-04-25T21:01:24;2.70;99.90
13446;DHT22;6795;51.232;3.764;2023-04-25T21:03:53;2.70;99.90
13446;DHT22;6795;51.232;3.764;2023-04-25T21:06:24;2.70;99.90
13446;DHT22;6795;51.232;3.764;2023-04-25T21:08:52;2.60;99.90
13446;DHT22;6795;51.232;3.764;2023-04-25T21:11:20;2.60;99.90
13446;DHT22;6795;51.232;3.764;2023-04-25T21:13:49;2.50;99.90
13446;DHT22;6795;51.232;3.764;2023-04-25T21:16:18;2.50;99.90
13446;DHT22;6795;51.232;3.764;2023-04-25T21:18:47;2.50;99.90
13446;DHT22;6795;51.232;3.764;2023-04-25T21:21:15;2.30;99.90
13446;DHT22;6795;51.232;3.764;2023-04-25T21:23:45;2.30;99.90
13446;DHT22;6795;51.232;3.764;2023-04-25T21:26:13;2.40;99.90
13446;DHT22;6795;51.232;3.764;2023-04-25T21:28:42;2.30;99.90
13446;DHT22;6795;51.232;3.764;2023-04-25T21:31:13;2.50;99.90
13446;DHT22;6795;51.232;3.764;2023-04-25T21:33:41;2.40;99.90
13446;DHT22;6795;51.232;3.764;2023-04-25T21:36:09;2.40;99.90
13446;DHT22;6795;51.232;3.764;2023-04-25T21:38:38;2.50;99.90
13446;DHT22;6795;51.232;3.764;2023-04-25T21:41:08;2.40;99.90
13446;DHT22;6795;51.232;3.764;2023-04-25T21:43:36;2.40;99.90
13446;DHT22;6795;51.232;3.764;2023-04-25T21:46:04;2.50;99.90
13446;DHT22;6795;51.232;3.764;2023-04-25T21:48:49;2.50;99.90
13446;DHT22;6795;51.232;3.764;2023-04-25T21:51:18;2.30;99.90
13446;DHT22;6795;51.232;3.764;2023-04-25T21:53:46;2.10;99.90
13446;DHT22;6795;51.232;3.764;2023-04-25T21:56:16;2.10;99.90
13446;DHT22;6795;51.232;3.764;2023-04-25T21:58:44;2.00;99.90
13446;DHT22;6795;51.232;3.764;2023-04-25T22:01:13;2.20;99.90
13446;DHT22;6795;51.232;3.764;2023-04-25T22:03:42;2.40;99.90
13446;DHT22;6795;51.232;3.764;2023-04-25T22:06:10;2.30;99.90
13446;DHT22;6795;51.232;3.764;2023-04-25T22:08:39;2.00;99.90
13446;DHT22;6795;51.232;3.764;2023-04-25T22:11:09;1.90;99.90
13446;DHT22;6795;51.232;3.764;2023-04-25T22:13:39;1.70;99.90
13446;DHT22;6795;51.232;3.764;2023-04-25T22:16:08;1.50;99.90
13446;DHT22;6795;51.232;3.764;2023-04-25T22:18:38;1.40;99.90
13446;DHT22;6795;51.232;3.764;2023-04-25T22:21:08;1.50;99.90
13446;DHT22;6795;51.232;3.764;2023-04-25T22:23:36;1.50;99.90
13446;DHT22;6795;51.232;3.764;2023-04-25T22:26:04;1.60;99.90
13446;DHT22;6795;51.232;3.764;2023-04-25T22:28:33;1.60;99.90
13446;DHT22;6795;51.232;3.764;2023-04-25T22:31:03;1.60;99.90
13446;DHT22;6795;51.232;3.764;2023-04-25T22:33:32;1.70;99.90
13446;DHT22;6795;51.232;3.764;2023-04-25T22:36:00;1.60;99.90
13446;DHT22;6795;51.232;3.764;2023-04-25T22:38:29;1.70;99.90
13446;DHT22;6795;51.232;3.764;2023-04-25T22:40:58;1.60;99.90
13446;DHT22;6795;51.232;3.764;2023-04-25T22:43:26;1.60;99.90
13446;DHT22;6795;51.232;3.764;2023-04-25T22:45:55;1.70;99.90
13446;DHT22;6795;51.232;3.764;2023-04-25T22:48:26;1.50;99.90
13446;DHT22;6795;51.232;3.764;2023-04-25T22:51:01;1.50;99.90
13446;DHT22;6795;51.232;3.764;2023-04-25T22:53:30;1.50;99.90
13446;DHT22;6795;51.232;3.764;2023-04-25T22:56:00;1.40;99.90
13446;DHT22;6795;51.232;3.764;2023-04-25T22:58:28;1.30;99.90
13446;DHT22;6795;51.232;3.764;2023-04-25T23:00:57;1.50;99.90
13446;DHT22;6795;51.232;3.764;2023-04-25T23:03:28;1.60;99.90
13446;DHT22;6795;51.232;3.764;2023-04-25T23:05:58;1.60;99.90
13446;DHT22;6795;51.232;3.764;2023-04-25T23:08:27;1.40;99.90
13446;DHT22;6795;51.232;3.764;2023-04-25T23:10:56;1.30;99.90
13446;DHT22;6795;51.232;3.764;2023-04-25T23:13:25;1.40;99.90
13446;DHT22;6795;51.232;3.764;2023-04-25T23:15:54;1.30;99.90
13446;DHT22;6795;51.232;3.764;2023-04-25T23:18:22;1.50;99.90
13446;DHT22;6795;51.232;3.764;2023-04-25T23:20:52;1.40;99.90
13446;DHT22;6795;51.232;3.764;2023-04-25T23:23:20;1.40;99.90
13446;DHT22;6795;51.232;3.764;2023-04-25T23:25:49;1.20;99.90
13446;DHT22;6795;51.232;3.764;2023-04-25T23:28:18;1.00;99.90
13446;DHT22;6795;51.232;3.764;2023-04-25T23:30:46;0.90;99.90
13446;DHT22;6795;51.232;3.764;2023-04-25T23:33:15;0.90;99.90
13446;DHT22;6795;51.232;3.764;2023-04-25T23:35:43;0.90;99.90
13446;DHT22;6795;51.232;3.764;2023-04-25T23:38:13;1.00;99.90
13446;DHT22;6795;51.232;3.764;2023-04-25T23:40:42;1.10;99.90
13446;DHT22;6795;51.232;3.764;2023-04-25T23:43:10;1.60;99.90
13446;DHT22;6795;51.232;3.764;2023-04-25T23:45:39;1.60;99.90
13446;DHT22;6795;51.232;3.764;2023-04-25T23:48:09;1.40;99.90
13446;DHT22;6795;51.232;3.764;2023-04-25T23:50:38;1.30;99.90
13446;DHT22;6795;51.232;3.764;2023-04-25T23:53:07;1.20;99.90
13446;DHT22;6795;51.232;3.764;2023-04-25T23:55:37;1.40;99.90
13446;DHT22;6795;51.232;3.764;2023-04-25T23:58:06;1.30;99.90
